createdAt,value
2017-11-25T00:01:13.467Z,4.20
2017-11-25T00:03:41.399Z,3.73
2017-11-25T00:06:09.736Z,4.70
2017-11-25T00:08:38.057Z,4.33
2017-11-25T00:11:06.595Z,5.30
2017-11-25T00:13:34.516Z,4.43
2017-11-25T00:16:02.047Z,4.97
2017-11-25T00:18:29.986Z,4.30
2017-11-25T00:20:58.722Z,4.77
2017-11-25T00:23:26.656Z,4.40
2017-11-25T00:25:54.942Z,2.70
2017-11-25T00:28:23.262Z,2.70
2017-11-25T00:30:51.550Z,3.60
2017-11-25T00:33:19.870Z,3.17
2017-11-25T00:35:50.067Z,3.50
2017-11-25T00:38:17.999Z,3.00
2017-11-25T00:40:46.301Z,4.70
2017-11-25T00:43:13.847Z,4.80
2017-11-25T00:45:41.767Z,5.10
2017-11-25T00:48:10.096Z,4.40
2017-11-25T00:50:38.396Z,5.00
2017-11-25T00:53:07.520Z,4.80
2017-11-25T00:55:35.087Z,4.90
2017-11-25T00:58:03.401Z,4.80
2017-11-25T01:00:31.767Z,3.60
2017-11-25T01:02:59.315Z,3.90
2017-11-25T01:05:26.853Z,4.10
2017-11-25T01:07:54.404Z,3.77
2017-11-25T01:10:22.941Z,3.73
2017-11-25T01:12:50.961Z,4.70
2017-11-25T01:15:18.535Z,5.57
2017-11-25T01:17:46.895Z,4.27
2017-11-25T01:20:14.871Z,5.00
2017-11-25T01:22:42.424Z,4.83
2017-11-25T01:25:09.939Z,5.60
2017-11-25T01:27:37.484Z,5.70
2017-11-25T01:30:05.814Z,4.57
2017-11-25T01:32:33.369Z,4.93
2017-11-25T01:35:00.903Z,6.00
2017-11-25T01:37:30.889Z,5.57
2017-11-25T01:39:58.429Z,6.07
2017-11-25T01:42:25.964Z,5.80
2017-11-25T01:44:53.516Z,6.57
2017-11-25T01:47:21.043Z,5.77
2017-11-25T01:49:48.612Z,4.73
2017-11-25T01:52:16.176Z,5.10
2017-11-25T01:54:43.715Z,5.63
2017-11-25T01:57:12.012Z,4.50
2017-11-25T01:59:39.552Z,5.07
2017-11-25T02:02:07.069Z,4.80
2017-11-25T02:04:34.702Z,3.70
2017-11-25T02:07:02.221Z,4.07
2017-11-25T02:09:29.759Z,3.40
2017-11-25T02:12:01.253Z,2.93
2017-11-25T02:14:29.555Z,3.13
2017-11-25T02:16:57.816Z,3.20
2017-11-25T02:19:25.751Z,2.77
2017-11-25T02:21:53.280Z,2.80
2017-11-25T02:24:20.819Z,2.50
2017-11-25T02:26:48.342Z,3.37
2017-11-25T02:29:16.624Z,2.80
2017-11-25T02:31:44.164Z,3.83
2017-11-25T02:34:11.733Z,4.10
2017-11-25T02:36:39.265Z,4.17
2017-11-25T02:39:06.816Z,3.67
2017-11-25T02:41:34.374Z,3.03
2017-11-25T02:44:02.341Z,4.00
2017-11-25T02:46:31.265Z,5.00
2017-11-25T02:48:58.806Z,4.97
2017-11-25T02:51:26.334Z,4.70
2017-11-25T02:53:54.579Z,5.33
2017-11-25T02:56:22.907Z,5.90
2017-11-25T02:58:50.436Z,4.73
2017-11-25T03:01:18.755Z,3.60
2017-11-25T03:03:46.294Z,5.10
2017-11-25T03:06:13.849Z,5.40
2017-11-25T03:08:41.367Z,5.90
2017-11-25T03:11:09.672Z,5.90
2017-11-25T03:13:37.963Z,5.40
2017-11-25T03:16:05.504Z,6.00
2017-11-25T03:18:33.035Z,5.80
2017-11-25T03:21:00.586Z,5.90
2017-11-25T03:23:28.992Z,4.60
2017-11-25T03:25:57.471Z,5.67
2017-11-25T03:28:25.005Z,4.60
2017-11-25T03:30:53.476Z,4.83
2017-11-25T03:33:21.015Z,5.13
2017-11-25T03:35:50.063Z,4.97
2017-11-25T03:38:17.983Z,4.60
2017-11-25T03:40:45.533Z,5.30
2017-11-25T03:43:13.058Z,4.60
2017-11-25T03:45:41.822Z,4.50
2017-11-25T03:48:10.393Z,5.00
2017-11-25T03:50:37.943Z,5.50
2017-11-25T03:53:05.947Z,5.10
2017-11-25T03:55:33.504Z,5.47
2017-11-25T03:58:01.423Z,5.10
2017-11-25T04:00:28.972Z,5.10
2017-11-25T04:02:56.503Z,4.97
2017-11-25T04:05:24.470Z,4.73
2017-11-25T04:07:52.315Z,4.90
2017-11-25T04:10:20.263Z,4.60
2017-11-25T04:12:48.546Z,5.07
2017-11-25T04:15:16.063Z,4.63
2017-11-25T04:17:44.416Z,5.30
2017-11-25T04:20:11.947Z,5.60
2017-11-25T04:22:40.265Z,5.93
2017-11-25T04:25:07.791Z,5.30
2017-11-25T04:27:35.979Z,5.17
2017-11-25T04:30:03.508Z,4.93
2017-11-25T04:32:31.835Z,5.47
2017-11-25T04:34:59.355Z,5.20
2017-11-25T04:37:26.895Z,5.00
2017-11-25T04:39:54.422Z,5.20
2017-11-25T04:42:21.971Z,7.50
2017-11-25T04:44:50.227Z,7.40
2017-11-25T04:47:17.777Z,7.30
2017-11-25T04:49:46.068Z,4.40
2017-11-25T04:52:13.620Z,1.77
2017-11-25T04:54:41.135Z,1.60
2017-11-25T04:57:08.681Z,1.20
2017-11-25T04:59:36.208Z,1.17
2017-11-25T05:02:03.759Z,1.33
2017-11-25T05:04:31.293Z,0.97
2017-11-25T05:06:59.621Z,1.30
2017-11-25T05:09:27.146Z,1.10
2017-11-25T05:11:54.712Z,1.00
2017-11-25T05:14:22.464Z,1.37
2017-11-25T05:16:50.358Z,1.40
2017-11-25T05:19:18.928Z,0.90
2017-11-25T05:21:47.238Z,1.20
2017-11-25T05:24:15.548Z,1.10
2017-11-25T05:26:44.216Z,1.20
2017-11-25T05:29:13.302Z,1.20
2017-11-25T05:31:40.840Z,1.10
2017-11-25T05:34:08.364Z,1.00
2017-11-25T05:36:35.916Z,1.07
2017-11-25T05:39:03.459Z,1.20
2017-11-25T05:41:30.982Z,1.00
2017-11-25T05:43:58.796Z,1.10
2017-11-25T05:46:26.322Z,1.30
2017-11-25T05:48:53.890Z,1.10
2017-11-25T05:51:21.427Z,1.00
2017-11-25T05:53:50.028Z,1.00
2017-11-25T05:56:19.111Z,1.30
2017-11-25T05:58:46.679Z,1.17
2017-11-25T06:01:14.303Z,1.37
2017-11-25T06:03:42.744Z,1.30
2017-11-25T06:06:14.047Z,1.40
2017-11-25T06:08:41.591Z,1.43
2017-11-25T06:11:10.899Z,1.50
2017-11-25T06:13:40.280Z,1.73
2017-11-25T06:16:09.297Z,1.40
2017-11-25T06:18:38.446Z,1.43
2017-11-25T06:21:06.087Z,1.57
2017-11-25T06:23:33.639Z,1.53
2017-11-25T06:26:01.952Z,1.83
2017-11-25T06:28:29.601Z,1.87
2017-11-25T06:31:00.026Z,1.90
2017-11-25T06:33:28.273Z,1.80
2017-11-25T06:35:56.586Z,2.00
2017-11-25T06:38:24.882Z,1.67
2017-11-25T06:40:52.420Z,1.70
2017-11-25T06:43:20.565Z,1.60
2017-11-25T06:45:51.931Z,1.50
2017-11-25T06:48:19.474Z,1.90
2017-11-25T06:50:47.448Z,1.60
2017-11-25T06:53:15.007Z,1.80
2017-11-25T06:55:42.602Z,1.63
2017-11-25T06:58:10.152Z,1.80
2017-11-25T07:00:38.535Z,1.20
2017-11-25T07:03:06.102Z,1.10
2017-11-25T07:05:33.640Z,1.23
2017-11-25T07:08:01.172Z,1.53
2017-11-25T07:10:28.715Z,1.00
2017-11-25T07:12:56.238Z,0.90
2017-11-25T07:15:24.539Z,1.30
2017-11-25T07:17:52.093Z,1.07
2017-11-25T07:20:20.204Z,1.00
2017-11-25T07:22:49.392Z,1.10
2017-11-25T07:25:16.981Z,1.10
2017-11-25T07:27:45.508Z,1.10
2017-11-25T07:30:13.972Z,1.00
2017-11-25T07:32:41.750Z,1.20
2017-11-25T07:35:09.349Z,1.20
2017-11-25T07:37:37.773Z,1.33
2017-11-25T07:40:06.932Z,1.40
2017-11-25T07:42:35.231Z,1.10
2017-11-25T07:45:02.784Z,1.30
2017-11-25T07:47:31.442Z,1.53
2017-11-25T07:50:00.753Z,1.50
2017-11-25T07:52:28.935Z,1.60
2017-11-25T07:54:56.520Z,1.63
2017-11-25T07:57:24.047Z,1.30
2017-11-25T07:59:51.991Z,1.67
2017-11-25T08:02:20.433Z,1.20
2017-11-25T08:04:48.252Z,1.40
2017-11-25T08:07:15.788Z,1.40
2017-11-25T08:09:44.684Z,1.67
2017-11-25T08:12:13.074Z,1.50
2017-11-25T08:14:43.220Z,1.73
2017-11-25T08:17:12.469Z,1.40
2017-11-25T08:19:40.068Z,2.37
2017-11-25T08:22:07.590Z,2.17
2017-11-25T08:24:35.108Z,1.27
2017-11-25T08:27:02.667Z,3.10
2017-11-25T08:29:31.011Z,1.70
2017-11-25T10:17:57.634Z,1.50
2017-11-25T10:20:25.213Z,1.00
2017-11-25T10:22:52.747Z,1.13
2017-11-25T10:25:21.789Z,1.43
2017-11-25T10:27:50.048Z,1.17
2017-11-25T10:30:18.304Z,1.20
2017-11-25T10:32:46.008Z,1.10
2017-11-25T10:35:14.166Z,1.60
2017-11-25T10:37:42.932Z,1.17
2017-11-25T10:40:11.219Z,1.30
2017-11-25T10:42:42.362Z,1.40
2017-11-25T10:45:14.140Z,1.23
2017-11-25T10:47:42.571Z,1.50
2017-11-25T10:50:11.393Z,1.00
2017-11-25T10:52:39.695Z,1.40
2017-11-25T10:55:07.235Z,2.67
2017-11-25T10:57:34.810Z,1.70
2017-11-25T11:00:02.728Z,3.63
2017-11-25T11:02:30.446Z,1.47
2017-11-25T11:04:59.973Z,1.37
2017-11-25T11:07:27.662Z,1.37
2017-11-25T11:09:58.037Z,1.20
2017-11-25T11:12:25.691Z,1.37
2017-11-25T11:14:53.449Z,1.10
2017-11-25T11:17:22.486Z,1.17
2017-11-25T11:19:50.029Z,1.57
2017-11-25T11:22:17.623Z,2.23
2017-11-25T11:24:45.221Z,2.63
2017-11-25T11:27:12.776Z,2.80
2017-11-25T11:29:41.246Z,1.63
2017-11-25T11:32:09.586Z,1.60
2017-11-25T11:34:37.525Z,2.77
2017-11-25T11:37:05.036Z,1.70
2017-11-25T11:39:32.722Z,1.70
2017-11-25T11:42:00.270Z,2.57
2017-11-25T11:44:27.834Z,1.90
2017-11-25T11:46:55.505Z,0.97
2017-11-25T11:49:23.044Z,1.00
2017-11-25T11:51:50.628Z,1.27
2017-11-25T11:54:18.183Z,1.33
2017-11-25T11:56:45.712Z,1.10
2017-11-25T11:59:16.052Z,2.17
2017-11-25T12:01:44.333Z,1.80
2017-11-25T12:04:13.772Z,2.17
2017-11-25T12:06:41.301Z,1.60
2017-11-25T12:09:08.843Z,1.80
2017-11-25T12:11:36.476Z,1.23
2017-11-25T12:14:05.531Z,1.30
2017-11-25T12:16:33.081Z,1.77
2017-11-25T12:19:00.736Z,1.40
2017-11-25T12:21:28.330Z,4.20
2017-11-25T12:23:56.870Z,1.80
2017-11-25T12:26:24.389Z,3.83
2017-11-25T12:28:53.384Z,2.73
2017-11-25T12:31:20.934Z,2.10
2017-11-25T12:33:48.667Z,1.80
2017-11-25T12:36:16.488Z,2.17
2017-11-25T12:38:44.072Z,1.67
2017-11-25T12:41:12.407Z,1.80
2017-11-25T12:43:39.943Z,1.60
2017-11-25T12:46:07.989Z,1.30
2017-11-25T12:48:36.313Z,1.17
2017-11-25T12:51:03.873Z,1.33
2017-11-25T12:53:31.391Z,1.20
2017-11-25T12:56:00.520Z,1.20
2017-11-25T12:58:28.042Z,1.10
2017-11-25T13:00:55.610Z,1.20
2017-11-25T13:03:23.144Z,1.33
2017-11-25T13:05:50.684Z,0.90
2017-11-25T13:08:19.977Z,1.13
2017-11-25T13:10:48.321Z,1.17
2017-11-25T13:13:16.618Z,1.13
2017-11-25T13:15:44.971Z,1.30
2017-11-25T13:18:13.260Z,1.20
2017-11-25T13:20:41.568Z,1.07
2017-11-25T13:23:09.853Z,0.90
2017-11-25T13:25:38.433Z,0.80
2017-11-25T13:28:07.738Z,1.00
2017-11-25T13:30:39.558Z,1.10
2017-11-25T13:33:07.936Z,0.90
2017-11-25T13:35:35.875Z,1.20
2017-11-25T13:38:04.192Z,1.30
2017-11-25T13:40:32.613Z,1.30
2017-11-25T13:43:00.959Z,1.40
2017-11-25T13:45:28.897Z,1.90
2017-11-25T13:47:57.335Z,1.70
2017-11-25T13:50:45.307Z,1.63
2017-11-25T13:53:14.587Z,1.40
2017-11-25T13:55:44.429Z,1.60
2017-11-25T13:58:11.948Z,1.97
2017-11-25T14:00:43.026Z,1.47
2017-11-25T14:03:12.620Z,1.10
2017-11-25T14:05:40.936Z,1.40
2017-11-25T14:08:09.279Z,1.20
2017-11-25T14:10:40.583Z,1.37
2017-11-25T14:13:08.775Z,1.50
2017-11-25T14:15:39.431Z,1.60
2017-11-25T14:18:07.146Z,1.53
2017-11-25T14:20:35.856Z,1.83
2017-11-25T14:23:03.501Z,1.30
2017-11-25T14:25:32.654Z,1.40
2017-11-25T14:28:01.131Z,2.07
2017-11-25T14:30:28.690Z,1.80
2017-11-25T14:32:57.236Z,1.60
2017-11-25T14:35:26.392Z,1.60
2017-11-25T14:37:54.859Z,1.50
2017-11-25T14:40:23.158Z,1.30
2017-11-25T14:42:52.221Z,1.50
2017-11-25T14:45:19.759Z,1.50
2017-11-25T14:47:48.097Z,1.40
2017-11-25T14:50:16.425Z,1.80
2017-11-25T14:52:44.809Z,1.80
2017-11-25T14:55:13.985Z,2.07
2017-11-25T14:57:41.518Z,2.30
2017-11-25T15:00:09.947Z,1.23
2017-11-25T15:02:38.256Z,1.40
2017-11-25T15:05:06.559Z,1.40
2017-11-25T15:07:34.163Z,1.47
2017-11-25T15:10:02.076Z,1.80
2017-11-25T15:12:30.392Z,2.27
2017-11-25T15:14:59.180Z,2.37
2017-11-25T15:17:27.132Z,3.47
2017-11-25T15:19:55.366Z,4.70
2017-11-25T15:22:24.599Z,3.43
2017-11-25T15:24:52.120Z,3.07
2017-11-25T15:27:20.429Z,2.67
2017-11-25T15:29:48.750Z,1.93
2017-11-25T15:32:17.102Z,1.80
2017-11-25T15:34:46.234Z,1.87
2017-11-25T15:37:14.196Z,2.10
2017-11-25T15:39:43.646Z,2.10
2017-11-25T15:42:11.574Z,1.60
2017-11-25T15:44:39.148Z,1.60
2017-11-25T15:47:07.645Z,1.90
2017-11-25T15:49:35.242Z,1.83
2017-11-25T15:52:02.776Z,1.40
2017-11-25T15:54:30.713Z,1.10
2017-11-25T15:56:59.696Z,0.97
2017-11-25T15:59:27.414Z,0.90
2017-11-25T16:01:54.927Z,1.10
2017-11-25T16:04:22.469Z,1.00
2017-11-25T16:06:51.612Z,0.80
2017-11-25T16:09:19.933Z,1.30
2017-11-25T16:11:47.447Z,0.80
2017-11-25T16:14:15.013Z,1.00
2017-11-25T16:16:42.531Z,1.10
2017-11-25T16:19:10.063Z,1.20
2017-11-25T16:21:37.599Z,1.40
2017-11-25T16:24:05.834Z,1.13
2017-11-25T16:26:33.570Z,1.50
2017-11-25T16:29:01.115Z,1.50
2017-11-25T16:31:28.635Z,1.60
2017-11-25T16:33:56.188Z,1.40
2017-11-25T16:36:23.743Z,1.10
2017-11-25T16:38:52.055Z,1.30
2017-11-25T16:41:19.577Z,1.40
2017-11-25T16:43:47.942Z,1.50
2017-11-25T16:46:17.198Z,1.30
2017-11-25T16:48:45.487Z,1.03
2017-11-25T16:51:14.984Z,0.93
2017-11-25T16:53:42.575Z,1.63
2017-11-25T16:56:10.485Z,1.30
2017-11-25T16:58:38.566Z,1.40
2017-11-25T17:01:06.235Z,1.30
2017-11-25T17:03:34.688Z,2.10
2017-11-25T17:06:03.957Z,1.00
2017-11-25T17:08:31.482Z,1.00
2017-11-25T17:10:59.054Z,1.10
2017-11-25T17:13:26.567Z,1.37
2017-11-25T17:15:54.104Z,2.00
2017-11-25T17:18:21.911Z,1.63
2017-11-25T17:20:50.402Z,1.30
2017-11-25T17:23:18.479Z,1.30
2017-11-25T17:25:46.108Z,2.07
2017-11-25T17:28:13.711Z,2.07
2017-11-25T17:30:41.288Z,1.47
2017-11-25T17:33:08.802Z,1.70
2017-11-25T17:35:36.341Z,2.03
2017-11-25T17:38:04.648Z,2.00
2017-11-25T17:40:33.125Z,2.30
2017-11-25T17:43:00.781Z,2.17
2017-11-25T17:45:29.115Z,2.90
2017-11-25T17:47:57.416Z,1.70
2017-11-25T17:50:27.227Z,1.90
2017-11-25T17:52:55.804Z,2.07
2017-11-25T17:55:23.517Z,1.77
2017-11-25T17:57:52.599Z,1.77
2017-11-25T18:00:20.231Z,1.70
2017-11-25T18:02:48.526Z,2.30
2017-11-25T18:05:16.983Z,2.43
2017-11-25T18:07:45.309Z,2.90
2017-11-25T18:10:12.890Z,3.50
2017-11-25T18:12:40.655Z,3.60
2017-11-25T18:15:10.053Z,3.10
2017-11-25T18:17:38.687Z,4.43
2017-11-25T18:20:06.737Z,3.10
2017-11-25T18:22:37.754Z,3.67
2017-11-25T18:25:05.272Z,4.40
2017-11-25T18:27:33.873Z,3.83
2017-11-25T18:30:02.369Z,4.50
2017-11-25T18:32:29.933Z,5.27
2017-11-25T18:34:57.493Z,4.53
2017-11-25T18:37:25.033Z,4.23
2017-11-25T18:39:52.961Z,7.23
2017-11-25T18:42:20.801Z,6.27
2017-11-25T18:44:48.898Z,6.77
2017-11-25T18:47:16.447Z,6.20
2017-11-25T18:49:44.063Z,6.67
2017-11-25T18:52:12.130Z,6.10
2017-11-25T18:54:40.762Z,7.70
2017-11-25T18:57:09.254Z,12.30
2017-11-25T18:59:36.934Z,13.17
2017-11-25T19:02:08.372Z,9.70
2017-11-25T19:04:37.031Z,7.70
2017-11-25T19:07:04.677Z,11.63
2017-11-25T19:09:32.206Z,10.07
2017-11-25T19:12:00.652Z,12.20
2017-11-25T19:14:29.780Z,10.83
2017-11-25T19:16:58.515Z,9.47
2017-11-25T19:19:26.979Z,9.10
2017-11-25T19:21:54.664Z,10.57
2017-11-25T19:24:22.810Z,9.30
2017-11-25T19:26:50.364Z,11.03
2017-11-25T19:29:18.656Z,12.83
2017-11-25T19:31:46.605Z,10.07
2017-11-25T19:34:14.301Z,11.37
2017-11-25T19:36:41.843Z,11.27
2017-11-25T19:39:09.883Z,10.23
2017-11-25T19:41:38.268Z,10.47
2017-11-25T19:44:05.807Z,10.57
2017-11-25T19:46:33.327Z,8.53
2017-11-25T19:49:01.673Z,10.47
2017-11-25T19:51:30.523Z,9.73
2017-11-25T19:53:58.161Z,9.93
2017-11-25T19:56:25.736Z,12.77
2017-11-25T19:58:53.285Z,12.40
2017-11-25T20:01:20.804Z,12.10
2017-11-25T20:03:48.768Z,10.57
2017-11-25T20:06:16.767Z,12.13
2017-11-25T20:08:45.164Z,13.07
2017-11-25T20:11:12.696Z,10.90
2017-11-25T20:13:40.667Z,10.70
2017-11-25T20:16:08.238Z,10.83
2017-11-25T20:18:36.664Z,12.70
2017-11-25T20:21:05.164Z,13.87
2017-11-25T20:23:33.101Z,13.03
2017-11-25T20:26:00.624Z,11.00
2017-11-25T20:28:28.934Z,11.30
2017-11-25T20:30:56.460Z,10.07
2017-11-25T20:33:24.006Z,11.60
2017-11-25T20:35:52.294Z,10.70
2017-11-25T20:38:19.970Z,11.20
2017-11-25T20:40:47.655Z,11.33
2017-11-25T20:43:15.312Z,9.40
2017-11-25T20:45:42.839Z,8.37
2017-11-25T20:48:11.155Z,11.27
2017-11-25T20:50:40.024Z,9.27
2017-11-25T20:53:08.491Z,10.50
2017-11-25T20:55:36.832Z,10.40
2017-11-25T20:58:04.374Z,7.53
2017-11-25T21:00:31.946Z,8.97
2017-11-25T21:02:59.469Z,8.33
2017-11-25T21:05:27.026Z,8.00
2017-11-25T21:07:54.549Z,8.67
2017-11-25T21:10:22.091Z,9.43
2017-11-25T21:12:50.417Z,8.37
2017-11-25T21:15:18.439Z,8.13
2017-11-25T21:17:46.865Z,8.73
2017-11-25T21:20:15.800Z,7.10
2017-11-25T21:22:44.255Z,7.70
2017-11-25T21:25:11.795Z,7.90
2017-11-25T21:27:39.315Z,8.13
2017-11-25T21:30:06.902Z,7.57
2017-11-25T21:32:34.649Z,7.57
2017-11-25T21:35:02.188Z,9.63
2017-11-25T21:37:29.747Z,7.60
2017-11-25T21:39:57.363Z,7.40
2017-11-25T21:42:25.724Z,7.80
2017-11-25T21:44:53.246Z,8.40
2017-11-25T21:47:20.752Z,7.80
2017-11-25T21:49:48.282Z,8.07
2017-11-25T21:52:17.389Z,8.10
2017-11-25T21:54:45.515Z,8.67
2017-11-25T21:57:13.665Z,9.23
2017-11-25T21:59:41.219Z,8.10
2017-11-25T22:02:08.744Z,8.10
2017-11-25T22:04:36.347Z,8.10
2017-11-25T22:07:04.676Z,8.60
2017-11-25T22:09:32.260Z,8.47
2017-11-25T22:11:59.793Z,8.73
2017-11-25T22:14:27.309Z,8.30
2017-11-25T22:16:55.618Z,8.63
2017-11-25T22:19:23.145Z,7.87
2017-11-25T22:21:51.503Z,7.57
2017-11-25T22:24:19.011Z,6.80
2017-11-25T22:26:46.551Z,6.80
2017-11-25T22:29:14.079Z,7.97
2017-11-25T22:31:41.764Z,7.63
2017-11-25T22:34:09.351Z,5.17
2017-11-25T22:36:36.877Z,6.53
2017-11-25T22:39:05.165Z,6.17
2017-11-25T22:41:32.699Z,5.53
2017-11-25T22:44:01.020Z,5.13
2017-11-25T22:46:28.704Z,7.10
2017-11-25T22:48:56.230Z,6.57
2017-11-25T22:51:24.706Z,6.90
2017-11-25T22:53:52.974Z,5.83
2017-11-25T22:56:20.583Z,4.40
2017-11-25T22:58:48.879Z,5.50
2017-11-25T23:01:16.475Z,4.60
2017-11-25T23:03:43.996Z,4.50
2017-11-25T23:06:11.531Z,4.93
2017-11-25T23:08:39.063Z,6.00
2017-11-25T23:11:06.995Z,6.03
2017-11-25T23:13:34.578Z,5.07
2017-11-25T23:16:02.199Z,5.37
2017-11-25T23:18:29.721Z,4.90
2017-11-25T23:20:57.293Z,4.00
2017-11-25T23:23:24.812Z,3.80
2017-11-25T23:25:52.344Z,3.30
2017-11-25T23:28:19.859Z,3.07
2017-11-25T23:30:47.385Z,3.17
2017-11-25T23:33:14.927Z,3.80
2017-11-25T23:35:42.440Z,3.80
2017-11-25T23:38:09.983Z,3.53
2017-11-25T23:40:37.495Z,3.53
2017-11-25T23:43:05.027Z,3.50
2017-11-25T23:45:32.539Z,3.80
2017-11-25T23:48:00.066Z,3.70
2017-11-25T23:50:27.577Z,3.57
2017-11-25T23:52:55.102Z,3.20
2017-11-25T23:55:22.615Z,3.50
2017-11-25T23:57:50.142Z,3.60
